DAL714 KPHX-KSLC
Flight info
| Callsign | DAL714 |
|---|---|
| Flight time | 1h 13m |
| Altitude | 34000 |
| Route | QUAKY1 GCN BCE QWENN6 |
| Aircraft | B739/M-SDE2E3FGHIRWXY/LB1 |
Departure
| Time | 2026-04-30 17:43 |
|---|---|
| Airport | Phoenix Sky Harbor International Airport (KPHX) |
Arrival
| Time | 2026-04-30 18:56 |
|---|---|
| Airport | Salt Lake City International Airport (KSLC) |
| Time | Latitude | Longitude | Altitude | Speed | Heading |
|---|---|---|---|---|---|
| 2026-04-30 17:39 | 33.43222 | -112.01551 | 1171 ft | 16 kts | 253° |
| 2026-04-30 17:41 | 33.43215 | -112.02608 | 1164 ft | 17 kts | 270° |
| 2026-04-30 17:42 | 33.43107 | -112.02605 | 1169 ft | 11 kts | 93° |
| 2026-04-30 17:42 | 33.43104 | -112.00471 | 1229 ft | 177 kts | 90° |
| 2026-04-30 17:43 | 33.43199 | -111.97467 | 2756 ft | 185 kts | 86° |
| 2026-04-30 17:44 | 33.43508 | -111.92046 | 4172 ft | 248 kts | 88° |
| 2026-04-30 17:44 | 33.44851 | -111.85781 | 6655 ft | 276 kts | 42° |
| 2026-04-30 17:46 | 33.54487 | -111.84099 | 9053 ft | 280 kts | 1° |
| 2026-04-30 17:47 | 33.62821 | -111.83772 | 10934 ft | 339 kts | 1° |
| 2026-04-30 17:48 | 33.72592 | -111.85158 | 13817 ft | 364 kts | 345° |
| 2026-04-30 17:48 | 33.80181 | -111.87013 | 15880 ft | 377 kts | 346° |
| 2026-04-30 17:49 | 33.90761 | -111.89420 | 18499 ft | 396 kts | 346° |
| 2026-04-30 17:50 | 34.01821 | -111.91913 | 20865 ft | 412 kts | 345° |
| 2026-04-30 17:51 | 34.10419 | -111.93800 | 22550 ft | 427 kts | 347° |
| 2026-04-30 17:52 | 34.19455 | -111.94774 | 24044 ft | 441 kts | 350° |
| 2026-04-30 17:53 | 34.35063 | -111.96423 | 26185 ft | 460 kts | 348° |
| 2026-04-30 17:54 | 34.48028 | -111.97860 | 27852 ft | 474 kts | 348° |
| 2026-04-30 17:55 | 34.61309 | -111.99331 | 29534 ft | 484 kts | 347° |
| 2026-04-30 17:56 | 34.74613 | -112.00794 | 31940 ft | 470 kts | 346° |
| 2026-04-30 17:57 | 34.84485 | -112.01913 | 32915 ft | 479 kts | 346° |
| 2026-04-30 17:58 | 34.94403 | -112.03026 | 33976 ft | 478 kts | 345° |
| 2026-04-30 18:00 | 35.20532 | -112.05980 | 34085 ft | 469 kts | 346° |
| 2026-04-30 18:01 | 35.36684 | -112.07820 | 34118 ft | 467 kts | 346° |
| 2026-04-30 18:02 | 35.56100 | -112.09769 | 34004 ft | 464 kts | 347° |
| 2026-04-30 18:04 | 35.74159 | -112.11968 | 33948 ft | 456 kts | 348° |
| 2026-04-30 18:05 | 35.86715 | -112.13509 | 34137 ft | 450 kts | 350° |
| 2026-04-30 18:06 | 35.99081 | -112.14927 | 34112 ft | 443 kts | 351° |
| 2026-04-30 18:08 | 36.20476 | -112.16792 | 34031 ft | 439 kts | 351° |
| 2026-04-30 18:10 | 36.45110 | -112.19015 | 33971 ft | 447 kts | 351° |
| 2026-04-30 18:11 | 36.66772 | -112.20980 | 33974 ft | 444 kts | 351° |
| 2026-04-30 18:13 | 36.82094 | -112.22376 | 33973 ft | 442 kts | 350° |
| 2026-04-30 18:14 | 36.97411 | -112.23779 | 33981 ft | 441 kts | 350° |
| 2026-04-30 18:15 | 37.15754 | -112.25465 | 33956 ft | 440 kts | 350° |
| 2026-04-30 18:16 | 37.27943 | -112.26591 | 33953 ft | 438 kts | 349° |
| 2026-04-30 18:17 | 37.34014 | -112.27152 | 33957 ft | 437 kts | 349° |
| 2026-04-30 18:18 | 37.43093 | -112.27994 | 34029 ft | 436 kts | 349° |
| 2026-04-30 18:18 | 37.49128 | -112.28556 | 34057 ft | 435 kts | 349° |
| 2026-04-30 18:19 | 37.55165 | -112.29118 | 34086 ft | 435 kts | 349° |
| 2026-04-30 18:19 | 37.61200 | -112.29680 | 34133 ft | 434 kts | 349° |
| 2026-04-30 18:20 | 37.67228 | -112.30243 | 34154 ft | 434 kts | 349° |
| 2026-04-30 18:20 | 37.73320 | -112.29947 | 34158 ft | 441 kts | 359° |
| 2026-04-30 18:21 | 37.79408 | -112.29046 | 34133 ft | 440 kts | 360° |
| 2026-04-30 18:21 | 37.85440 | -112.28155 | 34116 ft | 438 kts | 359° |
| 2026-04-30 18:22 | 37.91538 | -112.27295 | 34075 ft | 438 kts | 359° |
| 2026-04-30 18:22 | 38.00554 | -112.26052 | 34000 ft | 436 kts | 359° |
| 2026-04-30 18:23 | 38.06570 | -112.25222 | 33993 ft | 435 kts | 359° |
| 2026-04-30 18:23 | 38.12582 | -112.24394 | 34012 ft | 434 kts | 359° |
| 2026-04-30 18:24 | 38.21542 | -112.23153 | 34004 ft | 430 kts | 359° |
| 2026-04-30 18:25 | 38.27474 | -112.22329 | 34021 ft | 427 kts | 359° |
| 2026-04-30 18:25 | 38.36320 | -112.21100 | 34036 ft | 425 kts | 358° |
| 2026-04-30 18:26 | 38.45111 | -112.19875 | 34050 ft | 423 kts | 358° |
| 2026-04-30 18:27 | 38.53882 | -112.18652 | 34054 ft | 422 kts | 358° |
| 2026-04-30 18:28 | 38.62654 | -112.17423 | 34046 ft | 423 kts | 358° |
| 2026-04-30 18:28 | 38.71426 | -112.16193 | 34091 ft | 419 kts | 358° |
| 2026-04-30 18:29 | 38.74281 | -112.15784 | 34073 ft | 406 kts | 358° |
| 2026-04-30 18:29 | 38.82443 | -112.14636 | 33207 ft | 382 kts | 358° |
| 2026-04-30 18:30 | 38.87676 | -112.13920 | 32327 ft | 374 kts | 358° |
| 2026-04-30 18:30 | 38.92792 | -112.13220 | 31494 ft | 366 kts | 358° |
| 2026-04-30 18:31 | 38.95276 | -112.12880 | 31153 ft | 361 kts | 359° |
| 2026-04-30 18:31 | 39.00279 | -112.12184 | 30263 ft | 358 kts | 360° |
| 2026-04-30 18:32 | 39.05146 | -112.11510 | 29337 ft | 351 kts | 0° |
| 2026-04-30 18:32 | 39.07552 | -112.11172 | 28919 ft | 345 kts | 0° |
| 2026-04-30 18:32 | 39.12243 | -112.10518 | 28116 ft | 335 kts | 0° |
| 2026-04-30 18:33 | 39.14553 | -112.10200 | 27717 ft | 332 kts | 0° |
| 2026-04-30 18:33 | 39.19117 | -112.09573 | 26922 ft | 328 kts | 1° |
| 2026-04-30 18:33 | 39.21376 | -112.09253 | 26535 ft | 326 kts | 1° |
| 2026-04-30 18:34 | 39.23622 | -112.08938 | 26149 ft | 324 kts | 1° |
| 2026-04-30 18:34 | 39.28102 | -112.08310 | 25346 ft | 322 kts | 2° |
| 2026-04-30 18:34 | 39.30325 | -112.07996 | 24965 ft | 321 kts | 2° |
| 2026-04-30 18:35 | 39.32541 | -112.07683 | 24598 ft | 320 kts | 2° |
| 2026-04-30 18:35 | 39.34750 | -112.07370 | 24234 ft | 319 kts | 2° |
| 2026-04-30 18:35 | 39.36952 | -112.07060 | 23867 ft | 318 kts | 3° |
| 2026-04-30 18:36 | 39.41328 | -112.06439 | 23064 ft | 315 kts | 4° |
| 2026-04-30 18:36 | 39.43499 | -112.06131 | 22682 ft | 313 kts | 4° |
| 2026-04-30 18:36 | 39.47791 | -112.05521 | 21951 ft | 308 kts | 4° |
| 2026-04-30 18:37 | 39.49912 | -112.05219 | 21602 ft | 305 kts | 4° |
| 2026-04-30 18:37 | 39.52013 | -112.04920 | 21247 ft | 303 kts | 4° |
| 2026-04-30 18:37 | 39.54101 | -112.04623 | 20895 ft | 301 kts | 4° |
| 2026-04-30 18:37 | 39.56178 | -112.04328 | 20557 ft | 299 kts | 4° |
| 2026-04-30 18:38 | 39.58234 | -112.04035 | 20208 ft | 297 kts | 4° |
| 2026-04-30 18:38 | 39.60284 | -112.03743 | 19882 ft | 295 kts | 4° |
| 2026-04-30 18:38 | 39.62321 | -112.03453 | 19546 ft | 294 kts | 4° |
| 2026-04-30 18:38 | 39.64351 | -112.03164 | 19214 ft | 293 kts | 4° |
| 2026-04-30 18:39 | 39.66370 | -112.02875 | 18874 ft | 292 kts | 5° |
| 2026-04-30 18:39 | 39.68382 | -112.02588 | 18542 ft | 290 kts | 4° |
| 2026-04-30 18:39 | 39.70387 | -112.02301 | 18180 ft | 290 kts | 4° |
| 2026-04-30 18:39 | 39.72387 | -112.02016 | 17814 ft | 288 kts | 4° |
| 2026-04-30 18:40 | 39.74372 | -112.01731 | 17469 ft | 287 kts | 5° |
| 2026-04-30 18:40 | 39.76350 | -112.01448 | 17133 ft | 285 kts | 5° |
| 2026-04-30 18:40 | 39.78310 | -112.01167 | 16797 ft | 283 kts | 5° |
| 2026-04-30 18:40 | 39.80257 | -112.00888 | 16478 ft | 281 kts | 5° |
| 2026-04-30 18:41 | 39.82210 | -112.00608 | 16020 ft | 284 kts | 5° |
| 2026-04-30 18:41 | 39.84172 | -112.00327 | 15679 ft | 283 kts | 5° |
| 2026-04-30 18:41 | 39.86128 | -112.00046 | 15329 ft | 282 kts | 6° |
| 2026-04-30 18:41 | 39.88075 | -111.99766 | 14996 ft | 282 kts | 6° |
| 2026-04-30 18:42 | 39.90021 | -111.99486 | 14658 ft | 281 kts | 6° |
| 2026-04-30 18:42 | 39.93899 | -111.98931 | 13995 ft | 279 kts | 6° |
| 2026-04-30 18:42 | 39.95810 | -111.98697 | 13846 ft | 274 kts | 4° |
| 2026-04-30 18:45 | 40.15601 | -111.97095 | 12522 ft | 283 kts | 4° |
| 2026-04-30 18:45 | 40.17566 | -111.96931 | 12393 ft | 283 kts | 4° |
| 2026-04-30 18:45 | 40.19528 | -111.96767 | 12265 ft | 282 kts | 4° |
| 2026-04-30 18:46 | 40.21487 | -111.96603 | 12137 ft | 281 kts | 4° |
| 2026-04-30 18:46 | 40.23439 | -111.96440 | 12009 ft | 281 kts | 4° |
| 2026-04-30 18:46 | 40.25390 | -111.96276 | 11881 ft | 281 kts | 4° |
| 2026-04-30 18:46 | 40.27345 | -111.96113 | 11745 ft | 281 kts | 4° |
| 2026-04-30 18:47 | 40.29296 | -111.95950 | 11616 ft | 280 kts | 4° |
| 2026-04-30 18:47 | 40.31230 | -111.95786 | 11481 ft | 277 kts | 4° |
| 2026-04-30 18:47 | 40.33140 | -111.95626 | 11356 ft | 274 kts | 4° |
| 2026-04-30 18:47 | 40.35043 | -111.95467 | 11213 ft | 273 kts | 4° |
| 2026-04-30 18:48 | 40.36885 | -111.95312 | 11082 ft | 265 kts | 4° |
| 2026-04-30 18:48 | 40.38749 | -111.95152 | 10999 ft | 266 kts | 5° |
| 2026-04-30 18:48 | 40.40553 | -111.94706 | 10966 ft | 262 kts | 15° |
| 2026-04-30 18:48 | 40.42264 | -111.94052 | 10971 ft | 257 kts | 16° |
| 2026-04-30 18:49 | 40.43977 | -111.93439 | 10914 ft | 255 kts | 7° |
| 2026-04-30 18:49 | 40.45799 | -111.93523 | 10451 ft | 268 kts | 354° |
| 2026-04-30 18:49 | 40.47668 | -111.93801 | 9991 ft | 272 kts | 354° |
| 2026-04-30 18:49 | 40.49551 | -111.94059 | 9599 ft | 272 kts | 355° |
| 2026-04-30 18:50 | 40.51415 | -111.94282 | 9360 ft | 266 kts | 355° |
| 2026-04-30 18:50 | 40.53238 | -111.94491 | 9021 ft | 259 kts | 355° |
| 2026-04-30 18:50 | 40.54437 | -111.94629 | 8776 ft | 252 kts | 355° |
| 2026-04-30 18:50 | 40.56117 | -111.94824 | 8444 ft | 233 kts | 355° |
| 2026-04-30 18:51 | 40.58148 | -111.95061 | 8060 ft | 211 kts | 355° |
| 2026-04-30 18:51 | 40.59115 | -111.95173 | 7865 ft | 201 kts | 355° |
| 2026-04-30 18:51 | 40.60456 | -111.95330 | 7617 ft | 191 kts | 355° |
| 2026-04-30 18:51 | 40.61779 | -111.95484 | 7368 ft | 187 kts | 354° |
| 2026-04-30 18:52 | 40.63051 | -111.95633 | 7133 ft | 188 kts | 355° |
| 2026-04-30 18:52 | 40.64347 | -111.95783 | 6885 ft | 185 kts | 353° |
| 2026-04-30 18:52 | 40.65600 | -111.95926 | 6649 ft | 178 kts | 354° |
| 2026-04-30 18:52 | 40.66814 | -111.96065 | 6428 ft | 167 kts | 354° |
| 2026-04-30 18:53 | 40.67919 | -111.96199 | 6273 ft | 157 kts | 354° |
| 2026-04-30 18:53 | 40.69013 | -111.96339 | 6031 ft | 158 kts | 354° |
| 2026-04-30 18:53 | 40.70113 | -111.96460 | 5812 ft | 158 kts | 354° |
| 2026-04-30 18:53 | 40.71205 | -111.96575 | 5614 ft | 155 kts | 353° |
| 2026-04-30 18:54 | 40.72262 | -111.96707 | 5386 ft | 150 kts | 354° |
| 2026-04-30 18:54 | 40.73303 | -111.96835 | 5099 ft | 150 kts | 355° |
| 2026-04-30 18:54 | 40.74323 | -111.96957 | 4912 ft | 145 kts | 356° |
| 2026-04-30 18:54 | 40.75319 | -111.97076 | 4685 ft | 144 kts | 357° |
| 2026-04-30 18:55 | 40.76339 | -111.97185 | 4483 ft | 151 kts | 354° |
| 2026-04-30 18:55 | 40.78303 | -111.97415 | 4230 ft | 113 kts | 355° |
| 2026-04-30 18:55 | 40.78873 | -111.97480 | 4228 ft | 59 kts | 355° |
| 2026-04-30 18:56 | 40.79508 | -111.97631 | 4230 ft | 28 kts | 327° |
| 2026-04-30 18:56 | 40.79548 | -111.97758 | 4230 ft | 17 kts | 209° |
| 2026-04-30 18:56 | 40.79448 | -111.97761 | 4230 ft | 14 kts | 175° |
| 2026-04-30 18:57 | 40.79263 | -111.97740 | 4231 ft | 13 kts | 175° |
| 2026-04-30 18:57 | 40.79164 | -111.97730 | 4233 ft | 15 kts | 176° |
| 2026-04-30 18:57 | 40.79047 | -111.97715 | 4233 ft | 19 kts | 174° |
| 2026-04-30 18:58 | 40.78751 | -111.97680 | 4233 ft | 23 kts | 175° |
| 2026-04-30 18:58 | 40.78598 | -111.97662 | 4233 ft | 18 kts | 174° |
| 2026-04-30 18:58 | 40.78519 | -111.97731 | 4233 ft | 15 kts | 250° |
| 2026-04-30 18:59 | 40.78539 | -111.97892 | 4233 ft | 5 kts | 345° |
| 2026-04-30 19:00 | 40.78557 | -111.97897 | 4233 ft | 0 kts | 349° |